createdAt,value
2022-09-11T00:00:59.841Z,1.00
2022-09-11T00:03:28.176Z,1.00
2022-09-11T00:05:54.900Z,1.00
2022-09-11T00:08:22.224Z,1.00
2022-09-11T00:10:48.959Z,1.00
2022-09-11T00:13:24.762Z,1.00
2022-09-11T00:15:52.239Z,1.00
2022-09-11T00:18:23.697Z,1.00
2022-09-11T00:20:52.635Z,1.00
2022-09-11T00:23:21.539Z,1.00
2022-09-11T00:25:48.650Z,1.00
2022-09-11T00:28:25.377Z,1.00
2022-09-11T00:31:12.291Z,1.00
2022-09-11T00:33:39.826Z,1.00
2022-09-11T00:36:12.727Z,1.00
2022-09-11T00:38:40.011Z,1.00
2022-09-11T00:41:31.913Z,1.00
2022-09-11T00:44:12.640Z,1.00
2022-09-11T00:46:56.842Z,1.00
2022-09-11T00:49:42.104Z,1.00
2022-09-11T00:52:17.428Z,1.00
2022-09-11T00:54:51.586Z,1.00
2022-09-11T00:57:23.099Z,1.00
2022-09-11T00:59:52.877Z,1.00
2022-09-11T01:02:27.193Z,1.00
2022-09-11T01:04:55.692Z,1.00
2022-09-11T01:07:24.107Z,1.00
2022-09-11T01:09:51.199Z,1.00
2022-09-11T01:12:24.832Z,1.00
2022-09-11T01:14:54.846Z,1.00
2022-09-11T01:17:35.766Z,1.00
2022-09-11T01:20:43.295Z,1.00
2022-09-11T01:23:24.982Z,1.00
2022-09-11T01:26:05.223Z,1.00
2022-09-11T01:28:48.609Z,1.00
2022-09-11T01:31:20.384Z,1.00
2022-09-11T01:33:57.506Z,1.00
2022-09-11T01:36:44.347Z,1.00
2022-09-11T01:39:11.872Z,1.00
2022-09-11T01:41:56.375Z,1.00
2022-09-11T01:44:26.165Z,1.00
2022-09-11T01:46:53.631Z,1.00
2022-09-11T01:49:35.273Z,1.00
2022-09-11T01:52:06.307Z,1.00
2022-09-11T01:54:35.615Z,1.00
2022-09-11T01:57:42.167Z,43.60
2022-09-11T02:00:12.055Z,45.20
2022-09-11T02:02:43.968Z,1.00
2022-09-11T02:05:15.540Z,70.10
2022-09-11T02:07:58.373Z,1.00
2022-09-11T02:10:43.203Z,1.00
2022-09-11T02:13:40.811Z,14.40
2022-09-11T02:16:18.332Z,97.40
2022-09-11T02:18:58.598Z,1.00
2022-09-11T02:21:25.931Z,4.80
2022-09-11T02:23:55.342Z,1.00
2022-09-11T02:26:24.559Z,99.90
2022-09-11T02:28:53.097Z,1.00
2022-09-11T02:31:20.349Z,1.00
2022-09-11T02:33:48.139Z,1.00
2022-09-11T02:36:31.236Z,1.00
2022-09-11T02:39:07.074Z,1.00
2022-09-11T02:41:55.983Z,1.00
2022-09-11T02:44:41.272Z,1.00
2022-09-11T02:47:42.781Z,1.00
2022-09-11T02:50:21.923Z,1.00
2022-09-11T02:53:02.565Z,1.00
2022-09-11T02:55:49.511Z,1.00
2022-09-11T02:58:33.103Z,1.00
2022-09-11T03:01:04.273Z,1.00
2022-09-11T03:03:41.808Z,1.00
2022-09-11T03:06:15.367Z,1.00
2022-09-11T03:08:42.074Z,1.00
2022-09-11T03:11:09.515Z,1.00
2022-09-11T03:13:37.903Z,1.00
2022-09-11T03:16:05.556Z,1.00
2022-09-11T03:18:33.151Z,1.00
2022-09-11T03:21:00.952Z,1.00
2022-09-11T03:23:28.241Z,1.00
2022-09-11T03:25:55.578Z,1.00
2022-09-11T03:28:23.195Z,1.00
2022-09-11T03:30:50.521Z,1.00
2022-09-11T03:33:17.272Z,1.00
2022-09-11T03:35:44.672Z,1.00
2022-09-11T03:38:12.008Z,1.00
2022-09-11T03:40:39.237Z,1.00
2022-09-11T03:43:05.893Z,1.00
2022-09-11T03:45:32.655Z,1.00
2022-09-11T03:47:59.377Z,1.00
2022-09-11T03:50:26.581Z,1.00
2022-09-11T03:52:53.227Z,1.00
2022-09-11T03:55:19.891Z,1.00
2022-09-11T03:57:46.570Z,1.00
2022-09-11T04:00:13.393Z,1.00
2022-09-11T04:02:40.057Z,1.00
2022-09-11T04:05:07.770Z,1.00
2022-09-11T04:07:34.795Z,1.00
2022-09-11T04:10:01.491Z,1.00
2022-09-11T04:12:29.057Z,1.00
2022-09-11T04:14:57.075Z,1.00
2022-09-11T04:17:24.483Z,1.00
2022-09-11T04:19:51.221Z,1.00
2022-09-11T04:22:18.061Z,1.00
2022-09-11T04:24:44.873Z,1.00
2022-09-11T04:27:12.883Z,1.00
2022-09-11T04:29:39.549Z,1.00
2022-09-11T04:32:06.435Z,1.00
2022-09-11T04:34:33.106Z,1.00
2022-09-11T04:36:59.988Z,1.00
2022-09-11T04:39:26.660Z,1.00
2022-09-11T04:41:54.482Z,1.00
2022-09-11T04:44:21.486Z,1.00
2022-09-11T04:46:48.216Z,1.00
2022-09-11T04:49:14.981Z,1.00
2022-09-11T04:51:41.780Z,1.00
2022-09-11T04:54:12.365Z,1.00
2022-09-11T04:56:39.124Z,1.00
2022-09-11T04:59:16.048Z,1.00
2022-09-11T05:01:43.963Z,1.00
2022-09-11T05:04:15.397Z,1.00
2022-09-11T05:06:45.285Z,1.00
2022-09-11T05:09:12.646Z,1.00
2022-09-11T05:11:39.420Z,1.00
2022-09-11T05:14:06.826Z,1.00
2022-09-11T05:16:36.925Z,1.00
2022-09-11T05:19:04.639Z,1.00
2022-09-11T05:21:32.338Z,1.00
2022-09-11T05:24:01.792Z,1.00
2022-09-11T05:26:33.818Z,1.00
2022-09-11T05:29:03.842Z,1.00
2022-09-11T05:31:32.133Z,1.00
2022-09-11T05:34:00.437Z,1.00
2022-09-11T05:36:28.453Z,1.00
2022-09-11T05:38:55.263Z,1.00
2022-09-11T05:41:22.501Z,1.00
2022-09-11T05:43:49.204Z,1.00
2022-09-11T05:46:17.195Z,1.00
2022-09-11T05:48:44.553Z,1.00
2022-09-11T05:51:21.368Z,1.00
2022-09-11T05:53:52.427Z,1.00
2022-09-11T05:56:21.438Z,1.00
2022-09-11T05:58:49.397Z,1.00
2022-09-11T06:01:22.065Z,1.00
2022-09-11T06:03:49.593Z,1.00
2022-09-11T06:06:17.833Z,1.00
2022-09-11T06:08:44.678Z,1.00
2022-09-11T06:11:14.218Z,1.00
2022-09-11T06:13:43.526Z,1.00
2022-09-11T06:16:21.923Z,1.00
2022-09-11T06:18:50.371Z,1.00
2022-09-11T06:21:23.195Z,1.00
2022-09-11T06:23:52.336Z,1.00
2022-09-11T06:26:21.915Z,1.00
2022-09-11T06:28:49.385Z,1.00
2022-09-11T06:31:19.271Z,1.00
2022-09-11T06:33:47.042Z,1.00
2022-09-11T06:36:23.159Z,1.00
2022-09-11T06:38:54.882Z,1.00
2022-09-11T06:41:22.173Z,1.00
2022-09-11T06:43:49.380Z,1.00
2022-09-11T06:46:22.251Z,1.00
2022-09-11T06:48:50.632Z,1.00
2022-09-11T06:51:21.450Z,1.00
2022-09-11T06:53:48.831Z,1.00
2022-09-11T06:56:18.174Z,1.00
2022-09-11T06:58:46.072Z,1.00
2022-09-11T07:01:17.390Z,1.00
2022-09-11T07:03:45.539Z,1.00
2022-09-11T07:06:17.374Z,1.00
2022-09-11T07:08:44.548Z,1.00
2022-09-11T07:11:12.910Z,1.00
2022-09-11T07:13:40.321Z,1.00
2022-09-11T07:16:09.170Z,1.00
2022-09-11T07:18:41.357Z,1.00
2022-09-11T07:21:17.059Z,1.00
2022-09-11T07:23:50.980Z,1.00
2022-09-11T07:26:18.645Z,1.00
2022-09-11T07:28:45.328Z,1.00
2022-09-11T07:31:19.986Z,1.00
2022-09-11T07:33:49.461Z,1.00
2022-09-11T07:36:22.123Z,1.00
2022-09-11T07:38:50.269Z,1.00
2022-09-11T07:41:19.321Z,1.00
2022-09-11T07:43:46.437Z,1.00
2022-09-11T07:46:14.504Z,1.00
2022-09-11T07:48:43.040Z,1.00
2022-09-11T07:51:12.988Z,1.00
2022-09-11T07:53:46.095Z,1.00
2022-09-11T07:56:23.405Z,1.00
2022-09-11T07:58:51.856Z,1.00
2022-09-11T08:01:21.675Z,1.00
2022-09-11T08:03:49.421Z,1.00
2022-09-11T08:06:22.087Z,1.00
2022-09-11T08:08:56.492Z,1.00
2022-09-11T08:11:24.126Z,1.00
2022-09-11T08:13:52.833Z,1.00
2022-09-11T08:16:25.288Z,1.00
2022-09-11T08:18:55.042Z,1.00
2022-09-11T08:21:22.769Z,1.00
2022-09-11T08:23:49.911Z,1.00
2022-09-11T08:26:21.747Z,1.00
2022-09-11T08:28:50.644Z,1.00
2022-09-11T08:31:20.292Z,1.00
2022-09-11T08:33:48.101Z,1.00
2022-09-11T08:36:15.635Z,1.00
2022-09-11T08:38:44.203Z,1.00
2022-09-11T08:41:28.795Z,1.00
2022-09-11T08:44:07.131Z,1.00
2022-09-11T08:46:42.489Z,1.00
2022-09-11T08:49:21.867Z,1.00
2022-09-11T08:51:51.454Z,1.00
2022-09-11T08:54:27.528Z,99.90
2022-09-11T08:57:21.195Z,99.90
2022-09-11T09:00:02.441Z,99.90
2022-09-11T09:02:59.667Z,99.90
2022-09-11T09:05:47.853Z,99.90
2022-09-11T09:08:35.177Z,99.90
2022-09-11T09:11:10.472Z,99.90
2022-09-11T09:13:49.054Z,99.90
2022-09-11T09:16:15.719Z,99.90
2022-09-11T09:18:50.505Z,99.90
2022-09-11T09:21:37.527Z,99.90
2022-09-11T09:24:19.440Z,99.90
2022-09-11T09:26:51.033Z,99.90
2022-09-11T09:29:25.210Z,99.90
2022-09-11T09:31:57.501Z,99.90
2022-09-11T09:34:27.788Z,99.90
2022-09-11T09:37:16.179Z,99.90
2022-09-11T09:39:43.246Z,99.90
2022-09-11T09:42:39.521Z,99.90
2022-09-11T09:45:44.014Z,1.00
2022-09-11T09:48:11.774Z,1.00
2022-09-11T09:50:40.846Z,1.00
2022-09-11T09:53:36.406Z,1.00
2022-09-11T09:56:05.871Z,1.00
2022-09-11T09:58:40.298Z,1.00
2022-09-11T10:01:52.137Z,1.00
2022-09-11T10:04:23.798Z,1.00
2022-09-11T10:07:11.314Z,1.00
2022-09-11T10:09:51.512Z,1.00
2022-09-11T10:12:27.273Z,1.00
2022-09-11T10:14:58.368Z,1.00
2022-09-11T10:17:33.779Z,1.00
2022-09-11T10:20:15.901Z,1.00
2022-09-11T10:22:43.269Z,1.00
2022-09-11T10:25:15.603Z,1.00
2022-09-11T10:28:02.268Z,1.00
2022-09-11T10:30:32.032Z,1.00
2022-09-11T10:33:03.590Z,1.00
2022-09-11T10:35:33.579Z,1.00
2022-09-11T10:38:17.958Z,1.00
2022-09-11T10:41:25.072Z,1.00
2022-09-11T10:44:12.042Z,1.00
2022-09-11T10:46:40.963Z,1.00
2022-09-11T10:49:09.726Z,1.00
2022-09-11T10:51:39.030Z,1.00
2022-09-11T10:54:31.349Z,1.00
2022-09-11T10:57:04.751Z,1.00
2022-09-11T10:59:41.276Z,1.00
2022-09-11T11:02:40.912Z,1.00
2022-09-11T11:05:21.414Z,1.00
2022-09-11T11:08:00.062Z,1.00
2022-09-11T11:10:45.624Z,1.00
2022-09-11T11:13:33.770Z,1.00
2022-09-11T11:16:27.860Z,1.00
2022-09-11T11:19:12.686Z,1.00
2022-09-11T11:22:18.856Z,1.00
2022-09-11T11:25:07.496Z,1.00
2022-09-11T11:27:51.926Z,1.00
2022-09-11T11:30:20.919Z,1.00
2022-09-11T11:33:18.126Z,1.00
2022-09-11T11:35:54.124Z,1.00
2022-09-11T11:38:46.251Z,1.00
2022-09-11T11:41:20.344Z,99.90
2022-09-11T11:43:50.139Z,99.90
2022-09-11T11:46:34.844Z,99.90
2022-09-11T11:49:04.884Z,99.90
2022-09-11T11:51:41.054Z,99.90
2022-09-11T11:54:17.561Z,99.90
2022-09-11T11:57:19.924Z,99.90
2022-09-11T12:00:10.982Z,99.90
2022-09-11T12:02:49.528Z,99.90
2022-09-11T12:05:24.197Z,99.90
2022-09-11T12:07:51.678Z,99.90
2022-09-11T12:10:30.112Z,99.90
2022-09-11T12:13:01.647Z,99.90
2022-09-11T12:15:32.135Z,99.90
2022-09-11T12:18:12.323Z,99.90
2022-09-11T12:20:45.968Z,99.90
2022-09-11T12:23:30.793Z,99.90
2022-09-11T12:26:09.365Z,99.90
2022-09-11T12:28:37.978Z,99.90
2022-09-11T12:31:11.290Z,99.90
2022-09-11T12:33:41.097Z,99.90
2022-09-11T12:36:12.606Z,99.90
2022-09-11T12:38:47.300Z,99.90
2022-09-11T12:41:27.548Z,99.90
2022-09-11T12:43:55.040Z,99.90
2022-09-11T12:46:21.672Z,99.90
2022-09-11T12:49:05.642Z,99.90
2022-09-11T12:51:39.512Z,99.90
2022-09-11T12:54:14.538Z,99.90
2022-09-11T12:56:47.994Z,99.90
2022-09-11T12:59:26.133Z,99.90
2022-09-11T13:01:53.709Z,99.90
2022-09-11T13:04:25.102Z,99.90
2022-09-11T13:07:05.339Z,99.90
2022-09-11T13:09:34.284Z,99.90
2022-09-11T13:12:25.953Z,99.90
2022-09-11T13:14:57.158Z,99.90
2022-09-11T13:17:33.293Z,99.90
2022-09-11T13:20:22.338Z,99.90
2022-09-11T13:22:56.129Z,99.90
2022-09-11T13:25:28.032Z,99.90
2022-09-11T13:27:57.479Z,99.90
2022-09-11T13:30:25.764Z,99.90
2022-09-11T13:33:08.115Z,99.90
2022-09-11T13:35:36.567Z,99.90
2022-09-11T13:38:09.968Z,99.90
2022-09-11T13:40:49.756Z,99.90
2022-09-11T13:43:21.390Z,99.90
2022-09-11T13:45:48.593Z,99.90
2022-09-11T13:48:23.492Z,99.90
2022-09-11T13:50:51.587Z,99.90
2022-09-11T13:53:20.028Z,99.90
2022-09-11T13:55:49.113Z,99.90
2022-09-11T13:58:32.854Z,99.90
2022-09-11T14:01:14.253Z,99.90
2022-09-11T14:03:48.925Z,99.90
2022-09-11T14:06:18.997Z,99.90
2022-09-11T14:08:55.148Z,99.90
2022-09-11T14:11:29.364Z,99.90
2022-09-11T14:14:00.951Z,99.90
2022-09-11T14:16:34.125Z,99.90
2022-09-11T14:19:06.274Z,99.90
2022-09-11T14:21:37.444Z,99.90
2022-09-11T14:24:24.137Z,99.90
2022-09-11T14:26:50.832Z,99.90
2022-09-11T14:29:24.803Z,99.90
2022-09-11T14:31:52.790Z,99.90
2022-09-11T14:34:29.602Z,99.90
2022-09-11T14:37:13.130Z,99.90
2022-09-11T14:39:56.232Z,99.90
2022-09-11T14:42:26.886Z,99.90
2022-09-11T14:44:53.700Z,99.90
2022-09-11T14:47:24.427Z,99.90
2022-09-11T14:49:57.020Z,99.90
2022-09-11T14:52:27.070Z,99.90
2022-09-11T14:54:54.615Z,99.90
2022-09-11T14:57:24.024Z,99.90
2022-09-11T14:59:52.455Z,99.90
2022-09-11T15:02:22.167Z,99.90
2022-09-11T15:04:49.867Z,99.90
2022-09-11T15:07:18.746Z,99.90
2022-09-11T15:09:46.531Z,99.90
2022-09-11T15:12:14.510Z,99.90
2022-09-11T15:14:56.621Z,99.90
2022-09-11T15:17:25.618Z,99.90
2022-09-11T15:19:52.757Z,99.90
2022-09-11T15:22:19.856Z,99.90
2022-09-11T15:24:47.283Z,99.90
2022-09-11T15:27:14.958Z,99.90
2022-09-11T15:29:42.505Z,99.90
2022-09-11T15:32:09.922Z,99.90
2022-09-11T15:34:38.624Z,99.90
2022-09-11T15:37:05.537Z,99.90
2022-09-11T15:39:33.798Z,99.90
2022-09-11T15:42:01.716Z,99.90
2022-09-11T15:44:28.995Z,99.90
2022-09-11T15:46:57.629Z,99.90
2022-09-11T15:49:28.070Z,99.90
2022-09-11T15:51:55.429Z,99.90
2022-09-11T15:54:25.063Z,99.90
2022-09-11T15:56:52.869Z,99.90
2022-09-11T15:59:19.776Z,99.90
2022-09-11T16:01:46.601Z,99.90
2022-09-11T16:04:21.163Z,99.90
2022-09-11T16:06:49.255Z,99.90
2022-09-11T16:09:21.755Z,99.90
2022-09-11T16:11:50.422Z,99.90
2022-09-11T16:14:18.336Z,99.90
2022-09-11T16:16:48.314Z,99.90
2022-09-11T16:19:20.460Z,99.90
2022-09-11T16:21:48.081Z,99.90
2022-09-11T16:24:15.789Z,99.90
2022-09-11T16:26:44.344Z,99.90
2022-09-11T16:29:14.501Z,99.90
2022-09-11T16:31:42.298Z,99.90
2022-09-11T16:34:09.798Z,99.90
2022-09-11T16:36:40.388Z,99.90
2022-09-11T16:39:09.270Z,99.90
2022-09-11T16:41:39.633Z,99.90
2022-09-11T16:44:07.686Z,99.90
2022-09-11T16:46:35.247Z,99.90
2022-09-11T16:49:02.351Z,99.90
2022-09-11T16:51:29.708Z,99.90
2022-09-11T16:53:56.934Z,99.90
2022-09-11T16:56:25.766Z,99.90
2022-09-11T16:58:54.578Z,99.90
2022-09-11T17:01:24.457Z,99.90
2022-09-11T17:04:16.324Z,99.90
2022-09-11T17:06:43.034Z,99.90
2022-09-11T17:09:09.715Z,99.90
2022-09-11T17:11:37.145Z,99.90
2022-09-11T17:14:04.272Z,99.90
2022-09-11T17:16:34.169Z,99.90
2022-09-11T17:19:01.593Z,99.90
2022-09-11T17:21:29.169Z,99.90
2022-09-11T17:23:57.971Z,99.90
2022-09-11T17:26:24.797Z,99.90
2022-09-11T17:28:52.412Z,99.90
2022-09-11T17:31:19.963Z,99.90
2022-09-11T17:33:48.287Z,99.90
2022-09-11T17:36:17.747Z,99.90
2022-09-11T17:38:46.335Z,99.90
2022-09-11T17:41:13.418Z,99.90
2022-09-11T17:43:40.831Z,99.90
2022-09-11T17:46:13.569Z,99.90
2022-09-11T17:48:40.868Z,99.90
2022-09-11T17:51:13.015Z,99.90
2022-09-11T17:53:41.725Z,99.90
2022-09-11T17:56:16.926Z,99.90
2022-09-11T17:58:45.021Z,99.90
2022-09-11T18:01:16.513Z,99.90
2022-09-11T18:03:44.525Z,99.90
2022-09-11T18:06:38.271Z,99.90
2022-09-11T18:09:11.983Z,99.90
2022-09-11T18:11:40.334Z,99.90
2022-09-11T18:14:07.435Z,99.90
2022-09-11T18:16:34.352Z,99.90
2022-09-11T18:19:01.925Z,99.90
2022-09-11T18:21:28.955Z,99.90
2022-09-11T18:23:55.693Z,99.90
2022-09-11T18:26:25.869Z,99.90
2022-09-11T18:29:00.796Z,99.90
2022-09-11T18:31:30.092Z,99.90
2022-09-11T18:34:00.268Z,99.90
2022-09-11T18:36:31.023Z,99.90
2022-09-11T18:39:03.450Z,99.90
2022-09-11T18:42:29.812Z,99.90
2022-09-11T18:44:56.484Z,99.90
2022-09-11T18:47:24.510Z,99.90
2022-09-11T18:49:51.439Z,99.90
2022-09-11T18:52:19.826Z,99.90
2022-09-11T18:54:49.402Z,99.90
2022-09-11T18:57:16.135Z,99.90
2022-09-11T18:59:43.408Z,99.90
2022-09-11T19:02:10.393Z,99.90
2022-09-11T19:04:37.157Z,99.90
2022-09-11T19:07:04.967Z,99.90
2022-09-11T19:09:31.725Z,99.90
2022-09-11T19:12:00.257Z,99.90
2022-09-11T19:14:27.825Z,99.90
2022-09-11T19:16:54.608Z,99.90
2022-09-11T19:19:21.448Z,99.90
2022-09-11T19:21:48.607Z,99.90
2022-09-11T19:24:15.289Z,99.90
2022-09-11T19:26:43.572Z,99.90
2022-09-11T19:29:13.408Z,99.90
2022-09-11T19:31:40.646Z,99.90
2022-09-11T19:34:11.789Z,99.90
2022-09-11T19:36:39.484Z,99.90
2022-09-11T19:39:06.563Z,99.90
2022-09-11T19:41:37.330Z,99.90
2022-09-11T19:44:05.916Z,99.90
2022-09-11T19:46:34.290Z,99.90
2022-09-11T19:49:03.526Z,99.90
2022-09-11T19:51:33.175Z,99.90
2022-09-11T19:54:02.746Z,99.90
2022-09-11T19:56:31.902Z,99.90
2022-09-11T19:59:00.314Z,99.90
2022-09-11T20:01:29.721Z,99.90
2022-09-11T20:03:57.298Z,99.90
2022-09-11T20:06:27.432Z,99.90
2022-09-11T20:09:13.465Z,99.90
2022-09-11T20:11:42.648Z,99.90
2022-09-11T20:14:09.832Z,99.90
2022-09-11T20:16:36.648Z,99.90
2022-09-11T20:19:06.575Z,99.90
2022-09-11T20:21:35.226Z,99.90
2022-09-11T20:24:03.085Z,99.90
2022-09-11T20:26:30.912Z,99.90
2022-09-11T20:29:00.912Z,99.90
2022-09-11T20:31:36.861Z,99.90
2022-09-11T20:34:06.152Z,99.90
2022-09-11T20:36:33.187Z,99.90
2022-09-11T20:39:00.773Z,99.90
2022-09-11T20:41:29.919Z,99.90
2022-09-11T20:43:58.155Z,99.90
2022-09-11T20:46:25.057Z,99.90
2022-09-11T20:48:52.995Z,99.90
2022-09-11T20:51:21.298Z,99.90
2022-09-11T20:53:48.726Z,99.90
2022-09-11T20:56:18.304Z,99.90
2022-09-11T20:58:45.319Z,99.90
2022-09-11T21:01:15.512Z,99.90
2022-09-11T21:03:47.350Z,99.90
2022-09-11T21:06:14.564Z,99.90
2022-09-11T21:08:42.215Z,99.90
2022-09-11T21:11:09.089Z,99.90
2022-09-11T21:13:40.687Z,99.90
2022-09-11T21:16:10.864Z,99.90
2022-09-11T21:18:38.583Z,99.90
2022-09-11T21:21:05.853Z,99.90
2022-09-11T21:23:32.849Z,99.90
2022-09-11T21:25:59.553Z,99.90
2022-09-11T21:28:26.363Z,99.90
2022-09-11T21:30:53.291Z,99.90
2022-09-11T21:33:20.096Z,99.90
2022-09-11T21:35:52.605Z,99.90
2022-09-11T21:38:24.499Z,99.90
2022-09-11T21:40:52.138Z,99.90
2022-09-11T21:43:18.855Z,99.90
2022-09-11T21:45:47.037Z,99.90
2022-09-11T21:48:14.056Z,99.90
2022-09-11T21:50:40.942Z,99.90
2022-09-11T21:53:08.716Z,99.90
2022-09-11T21:55:42.522Z,99.90
2022-09-11T21:58:14.375Z,99.90
2022-09-11T22:00:43.222Z,99.90
2022-09-11T22:03:12.177Z,99.90
2022-09-11T22:05:43.045Z,99.90
2022-09-11T22:08:11.698Z,99.90
2022-09-11T22:10:49.358Z,99.90
2022-09-11T22:13:17.883Z,99.90
2022-09-11T22:15:47.673Z,99.90
2022-09-11T22:18:15.220Z,99.90
2022-09-11T22:20:42.448Z,99.90
2022-09-11T22:23:14.480Z,99.90
2022-09-11T22:25:41.232Z,99.90
2022-09-11T22:28:08.555Z,99.90
2022-09-11T22:30:35.339Z,99.90
2022-09-11T22:33:02.066Z,99.90
2022-09-11T22:35:28.838Z,99.90
2022-09-11T22:37:55.520Z,99.90
2022-09-11T22:40:22.326Z,99.90
2022-09-11T22:42:49.800Z,99.90
2022-09-11T22:45:16.752Z,99.90
2022-09-11T22:47:43.433Z,99.90
2022-09-11T22:50:10.298Z,99.90
2022-09-11T22:52:37.642Z,99.90
2022-09-11T22:55:06.261Z,99.90
2022-09-11T22:57:35.822Z,99.90
2022-09-11T23:00:04.829Z,99.90
2022-09-11T23:02:31.546Z,99.90
2022-09-11T23:05:17.125Z,99.90
2022-09-11T23:07:44.225Z,99.90
2022-09-11T23:10:12.239Z,99.90
2022-09-11T23:12:39.469Z,99.90
2022-09-11T23:15:06.683Z,99.90
2022-09-11T23:17:33.608Z,99.90
2022-09-11T23:20:00.436Z,99.90
2022-09-11T23:22:27.653Z,99.90
2022-09-11T23:24:54.333Z,99.90
2022-09-11T23:27:21.050Z,99.90
2022-09-11T23:29:47.843Z,99.90
2022-09-11T23:32:14.604Z,99.90
2022-09-11T23:34:41.247Z,99.90
2022-09-11T23:37:07.930Z,99.90
2022-09-11T23:39:34.830Z,99.90
2022-09-11T23:42:01.576Z,99.90
2022-09-11T23:44:28.244Z,99.90
2022-09-11T23:46:54.999Z,99.90
2022-09-11T23:49:21.654Z,99.90
2022-09-11T23:51:49.825Z,99.90
2022-09-11T23:54:16.632Z,99.90
2022-09-11T23:56:44.337Z,99.90
2022-09-11T23:59:12.003Z,99.90
